Tiempo atmosférico en la estación meteorológica de Abenójar, Ciudad Real (718 m.)



Fecha
DESCASC
Temp. máxima en grados centígrados (hora)
DESCASC
Temp. mínima en grados centígrados (hora)
DESCASC
Temp. media en grados centígrados
DESCASC
Racha de viento máxima en m/sg (hora)
DESCASC
Velocidad máxima media en intervalos de 10 minutos(hora)
DESCASC
Precipitaciones diarias en mm
DESCASC
Precipitaciones de 00:00 a 06:00 en mm
DESCASC
Precipitaciones de 06:00 a 12:00 en mm
DESCASC
Precipitaciones de 12:00 a 18:00 en mm
DESCASC
Precipitaciones de 18:00 a 24:00 en mm
DESCASC
05-04-2020 20.1 (15:50) 8.6 (08:10) 14.4 8.89 (16:10) 4.44 (16:40) 0 0 0 0 0
04-04-2020 18.8 (15:30) 5.4 (08:00) 12.1 8.61 (19:40) 6.11 (09:20) 0 0 0 0 0
03-04-2020 18 (18:30) 4.7 (07:10) 11.3 5.28 (11:40) 3.61 (09:40) 0 0 0 0 0
02-04-2020 14.3 (17:50) 4.5 (00:00) 9.4 7.5 (19:20) 5.28 (19:20) 2.8 0 2.8 0 0
01-04-2020 13.6 (18:30) 6 (00:00) 9.8 9.44 (20:30) 4.72 (14:30) 4.4 4.4 0 0 0
31-03-2020 13.3 (14:40) 3.6 (00:00) 8.5 11.94 (15:10) 7.22 (00:30) 18.4 1.8 4.4 1.6 10.6
30-03-2020 11.3 (12:50) 3.8 (00:00) 7.6 10.28 (20:50) 6.94 (22:10) 10.6 0 0 4.2 6.4
29-03-2020 17.5 (17:10) 3.1 (00:00) 10.3 6.39 (19:00) 4.72 (03:30) 0 0 0 0 0
28-03-2020 14.8 (17:10) 2.1 (00:00) 8.5 8.89 (02:20) 6.11 (03:40) 0 0 0 0 0
27-03-2020 9.2 (00:20) 3.2 (00:00) 6.2 11.11 (21:40) 7.22 (21:10) 0 0 0 0 0
26-03-2020 16.4 (17:20) 7 (00:00) 11.7 10.28 (17:00) 6.67 (16:20) 0 0 0 0 0
25-03-2020 15.7 (16:30) 4 (00:00) 9.8 10.28 (00:50) 6.67 (01:00) 1.4 0 0 0 1.4
24-03-2020 12.5 (15:30) 7.6 (00:00) 10 17.22 (16:10) 10.28 (17:40) 0.4 0.4 0 0 0
23-03-2020 14.8 (17:10) 5.2 (00:00) 10 14.44 (18:30) 8.06 (18:30) 4.4 0.2 0.2 0 4
22-03-2020 11.2 (17:30) 4.4 (07:00) 7.8 6.94 (12:50) 4.44 (13:30) 1.2 0 0 0.6 0.6
21-03-2020 11.3 (14:40) 5.6 (00:00) 8.5 8.89 (00:10) 6.11 (00:20) 15 2.2 5.8 0 7
20-03-2020 17 (14:50) 7 (00:00) 12 8.89 (23:59) 6.67 (23:59) 0 0 0 0 0
19-03-2020 16.8 (16:40) 4.8 (00:00) 10.8 10.83 (08:50) 7.5 (08:50) 0 0 0 0 0
18-03-2020 16.5 (14:20) 8 (00:00) 12.3 16.39 (11:00) 11.11 (10:10) 0 0 0 0 0
17-03-2020 15.5 (16:10) 1.9 (00:00) 8.7 13.89 (19:30) 8.33 (22:00) 0 0 0 0 0
16-03-2020 10 (00:00) 1.7 (00:00) 5.9 11.39 (04:40) 7.22 (04:40) 3.6 3.6 0 0 0
15-03-2020 20.7 (15:20) 8.7 (00:00) 14.7 16.39 (16:30) 8.33 (16:30) 32.6 0 0 3.2 29.4
14-03-2020 21.3 (18:00) 8.2 (00:00) 14.7 8.61 (14:00) 2.5 (11:00) 0 0 0 0 0
13-03-2020 21.7 (16:40) 8.3 (07:30) 15 6.94 (15:10) 4.44 (14:50) 0 0 0 0 0
12-03-2020 26.1 (15:00) 12.7 (00:00) 19.4 6.94 (16:00) 4.72 (05:50) 0 0 0 0 0
11-03-2020 27.4 (16:00) 9.3 (00:00) 18.3 4.72 (15:30) 3.61 (09:20) 0 0 0 0 0
10-03-2020 22.6 (17:30) 5.1 (00:00) 13.9 4.72 (11:40) 3.61 (05:30) 0 0 0 0 0

Gráficas

Temp. máximas Temp. mínimas Temp. medias Precipitaciones Rachas de viento máximas Velocidades máximas media en intervalos de 10 minutos

Datos horarios

Fecha y hora oficial Temperatura (ºC) Velocidad del viento (km/h) Dirección del viento Racha (km/h) Dirección de racha Precipitación (mm) Presión (hPa) Tendencia (hPa) Humedad (%)
2020-04-08 23:00:00 16.2 5 Noroeste 7 Noroeste 0 -- -- 75
2020-04-08 22:00:00 16.4 3 Noroeste 6 Noroeste 0 -- -- 75
2020-04-08 21:00:00 18.8 4 Noroeste 5 Noroeste 0 -- -- 70
2020-04-08 20:00:00 21.4 4 Oeste 8 Oeste 0 -- -- 55
2020-04-08 19:00:00 21.7 3 Nordeste 11 Noroeste 0 -- -- 49
2020-04-08 18:00:00 22.3 3 Sudoeste 13 Sudeste 0 -- -- 50
2020-04-08 17:00:00 21.7 3 Nordeste 17 Sudeste 0 -- -- 49
2020-04-08 16:00:00 20.8 7 Este 17 Este 0 -- -- 54
2020-04-08 15:00:00 20 6 Nordeste 17 Nordeste 0 -- -- 59
2020-04-08 14:00:00 19.5 5 Este 14 Sudeste 0 -- -- 63
2020-04-08 13:00:00 17.9 10 Sudeste 14 Sudeste 0 -- -- 72
2020-04-08 12:00:00 15.4 9 Este 16 Nordeste 0 -- -- 81
2020-04-08 11:00:00 13.2 9 Nordeste 17 Nordeste 0 -- -- 85
2020-04-08 10:00:00 11 9 Nordeste 21 Nordeste 0 -- -- 93
2020-04-08 09:00:00 10.2 6 Este 18 Nordeste 0 -- -- 94
2020-04-08 08:00:00 9.5 6 Este 15 Nordeste 0 -- -- 97
2020-04-08 07:00:00 9.6 10 Nordeste 19 Nordeste 0 -- -- 97
2020-04-08 06:00:00 10.2 10 Nordeste 15 Nordeste 0 -- -- 97
2020-04-08 05:00:00 11 9 Nordeste 13 Nordeste 0 -- -- 95
2020-04-08 04:00:00 12.1 5 Norte 21 Este 0 -- -- 91
2020-04-08 03:00:00 12.5 11 Este 17 Este 0 -- -- 91
2020-04-08 02:00:00 12.7 7 Nordeste 12 Nordeste 0 -- -- 91
2020-04-08 01:00:00 13 8 Nordeste 12 Nordeste 0 -- -- 91
2020-04-08 00:00:00 13.3 8 Nordeste 12 Norte 0 -- -- 89
2020-04-07 23:00:00 14.1 5 Norte 10 Norte 0 -- -- 85
2020-04-07 22:00:00 14.8 6 Norte 9 Noroeste 0 -- -- 82
2020-04-07 21:00:00 16.6 7 Norte 10 Norte 0 -- -- 77
2020-04-07 20:00:00 17.9 0 Calma 21 Oeste 0 -- -- 71
2020-04-07 19:00:00 18.4 10 Oeste 22 Oeste 0 -- -- 66
2020-04-07 18:00:00 19.1 15 Oeste 24 Oeste 0 -- -- 62
2020-04-07 17:00:00 19.4 11 Oeste 21 Oeste 0 -- -- 59
2020-04-07 16:00:00 19.8 9 Oeste 20 Oeste 0 -- -- 60
2020-04-07 15:00:00 19.3 7 Oeste 18 Sudoeste 0 -- -- 61
2020-04-07 14:00:00 18.6 9 Sudoeste 16 Sudoeste 0 -- -- 65
2020-04-07 13:00:00 17 5 Sudoeste 13 Sudoeste 0 -- -- 72
2020-04-07 12:00:00 16.3 4 Sur 19 Este 0 -- -- 76
2020-04-07 11:00:00 14.6 5 Sur 9 Sur 0 -- -- 90
2020-04-07 10:00:00 13.3 3 Sur 5 Sur 0 -- -- 94
2020-04-07 09:00:00 12.6 0 Calma 9 Este 0 -- -- 97
2020-04-07 08:00:00 11.7 5 Este 8 Este 0 -- -- 99
2020-04-07 07:00:00 11.1 3 Este 5 Nordeste 0 -- -- 99
2020-04-07 06:00:00 11.5 2 Este 6 Este 0.2 -- -- 99
2020-04-07 05:00:00 11.4 4 Nordeste 6 Nordeste 0 -- -- 98
2020-04-07 04:00:00 11.7 4 Nordeste 5 Nordeste 0 -- -- 98
2020-04-07 03:00:00 12.3 0 Calma 3 Este 0.2 -- -- 99
2020-04-07 02:00:00 12.2 2 Sur 5 Noroeste 0 -- -- 97
2020-04-07 01:00:00 12.9 3 Sur 9 Sudoeste 0.6 -- -- 96
2020-04-07 00:00:00 13.4 5 Oeste 10 Oeste 0 -- -- 95
2020-04-06 23:00:00 13.4 2 Oeste 12 Sur 0.6 -- -- 96
2020-04-06 22:00:00 13.3 3 Sudeste 20 Sudoeste 0.8 -- -- 93
2020-04-06 21:00:00 14.8 10 Sudoeste 25 Sur 0 -- -- 87
2020-04-06 20:00:00 16 3 Sudoeste 16 Sudoeste 0 -- -- 79
2020-04-06 19:00:00 16.8 7 Sudoeste 16 Sudoeste 0 -- -- 73
2020-04-06 18:00:00 17.6 8 Sudoeste 18 Sudoeste 0 -- -- 70
2020-04-06 17:00:00 16.4 8 Sudoeste 18 Sudoeste 0 -- -- 71
2020-04-06 16:00:00 15.8 8 Sudoeste 21 Oeste 0 -- -- 77
2020-04-06 15:00:00 14.4 12 Oeste 20 Oeste 0 -- -- 84
2020-04-06 14:00:00 14 7 Sudoeste 20 Sudoeste 0 -- -- 88
2020-04-06 13:00:00 12.8 6 Sudoeste 21 Sur 0 -- -- 95
2020-04-06 12:00:00 12.4 13 Sudoeste 22 Sur 0.2 -- -- 96
2020-04-06 11:00:00 12.1 9 Sudoeste 18 Sur 0 -- -- 97
2020-04-06 10:00:00 12.1 7 Sur 12 Sudoeste 0.2 -- -- 97
2020-04-06 09:00:00 12.1 8 Sudoeste 13 Sudoeste 0 -- -- 96
2020-04-06 08:00:00 11.9 5 Sur 11 Sur 0.2 -- -- 97
2020-04-06 07:00:00 11.8 4 Sur 13 Sudoeste 1 -- -- 96
2020-04-06 06:00:00 12 5 Sudoeste 12 Sudoeste 0.6 -- -- 94
2020-04-06 05:00:00 12.2 4 Sur 11 Sudoeste 0 -- -- 91
2020-04-06 04:00:00 12.1 6 Sudoeste 10 Sudoeste 0 -- -- 90
2020-04-06 03:00:00 11.8 4 Sur 10 Sur 0 -- -- 89
2020-04-06 02:00:00 11.7 5 Sudoeste 14 Sudoeste 0 -- -- 88
2020-04-06 01:00:00 11.7 4 Sudoeste 11 Sudoeste 0 -- -- 86
2020-04-06 00:00:00 12.3 6 Sudoeste 15 Sudoeste 0 -- -- 81
2020-04-05 23:00:00 13.5 4 Sudoeste 8 Sudoeste 0 -- -- 73
2020-04-05 22:00:00 14.5 4 Sur 14 Sur 0 -- -- 71
2020-04-05 21:00:00 15.4 8 Sudoeste 13 Sudoeste 0 -- -- 69
2020-04-05 20:00:00 16.3 5 Sudoeste 20 Sudoeste 0 -- -- 65
2020-04-05 19:00:00 17.4 9 Sudoeste 24 Sudoeste 0 -- -- 60
2020-04-05 18:00:00 18.5 14 Sudoeste 26 Sudoeste 0 -- -- 52
2020-04-05 17:00:00 19.2 12 Sudoeste 32 Sudoeste 0 -- -- 50
2020-04-05 16:00:00 20 14 Sudoeste 28 Sudoeste 0 -- -- 46
2020-04-05 15:00:00 19.4 13 Sudoeste 24 Sudoeste 0 -- -- 47
2020-04-05 14:00:00 18.9 10 Sudoeste 19 Sur 0 -- -- 46
2020-04-05 13:00:00 17.2 6 Sudoeste 22 Sudoeste 0 -- -- 55
2020-04-05 12:00:00 15.8 5 Sur 16 Sudeste 0 -- -- 55
2020-04-05 11:00:00 14 6 Sudeste 13 Nordeste 0 -- -- 67
2020-04-05 10:00:00 11.5 8 Nordeste 13 Nordeste 0 -- -- 79
2020-04-05 09:00:00 10.1 9 Nordeste 16 Nordeste 0 -- -- 81
2020-04-05 08:00:00 9.1 7 Este 14 Este 0 -- -- 81
2020-04-05 07:00:00 9 9 Este 17 Nordeste 0 -- -- 80
2020-04-05 06:00:00 9.6 8 Este 12 Este 0 -- -- 78
2020-04-05 05:00:00 10 7 Nordeste 10 Nordeste 0 -- -- 77
2020-04-05 04:00:00 9.3 0 Calma 5 Sudeste 0 -- -- 84
2020-04-05 03:00:00 10.8 5 Oeste 19 Sur 0 -- -- 73
2020-04-05 02:00:00 11.7 6 Sur 8 Sur 0 -- -- 73
2020-04-05 01:00:00 11.9 3 Sur 9 Sudeste 0 -- -- 77
2020-04-05 00:00:00 12.1 7 Sudeste 12 Sudeste 0 -- -- 73
2020-04-04 23:00:00 12.3 2 Sudoeste 10 Noroeste 0 -- -- 79
2020-04-04 22:00:00 12.4 9 Noroeste 13 Oeste 0 -- -- 75
2020-04-04 21:00:00 12.8 0 Calma 30 Sudoeste 0 -- -- 74
2020-04-04 20:00:00 14.8 16 Sudoeste 31 Sur 0 -- -- 54
2020-04-04 19:00:00 16.8 12 Sur 23 Sur 0 -- -- 43
2020-04-04 18:00:00 17.3 6 Sudoeste 24 Sur 0 -- -- 44
2020-04-04 17:00:00 18.1 17 Sudoeste 27 Sudoeste 0 -- -- 38
2020-04-04 16:00:00 18.5 13 Sur 25 Sur 0 -- -- 37
2020-04-04 15:00:00 17.7 8 Sudeste 22 Sudeste 0 -- -- 45
2020-04-04 14:00:00 16 14 Este 24 Este 0 -- -- 56
2020-04-04 13:00:00 15.1 14 Este 24 Este 0 -- -- 59
2020-04-04 12:00:00 13.2 14 Este 25 Nordeste 0 -- -- 69
2020-04-04 11:00:00 11 16 Este 26 Este 0 -- -- 76
2020-04-04 10:00:00 8.7 16 Este 31 Nordeste 0 -- -- 82
2020-04-04 09:00:00 6.3 20 Nordeste 27 Este 0 -- -- 90
2020-04-04 08:00:00 5.4 17 Nordeste 23 Nordeste 0 -- -- 92
2020-04-04 07:00:00 6 18 Nordeste 26 Nordeste 0 -- -- 89
2020-04-04 06:00:00 7 17 Nordeste 24 Nordeste 0 -- -- 85
2020-04-04 05:00:00 7.5 13 Nordeste 19 Nordeste 0 -- -- 83
2020-04-04 04:00:00 7.6 14 Nordeste 20 Nordeste 0 -- -- 82
2020-04-04 03:00:00 8.8 13 Nordeste 21 Nordeste 0 -- -- 76
2020-04-04 02:00:00 9.4 13 Nordeste 20 Nordeste 0 -- -- 73
2020-04-04 01:00:00 10.2 10 Nordeste 15 Nordeste 0 -- -- 69
2020-04-04 00:00:00 11.1 10 Nordeste 15 Nordeste 0 -- -- 65
2020-04-03 23:00:00 11.4 10 Nordeste 14 Nordeste 0 -- -- 65
2020-04-03 22:00:00 11.2 9 Nordeste 12 Este 0 -- -- 69
2020-04-03 21:00:00 13.3 9 Este 12 Este 0 -- -- 60
2020-04-03 20:00:00 15.5 6 Este 12 Sudeste 0 -- -- 56
2020-04-03 19:00:00 16.6 11 Este 17 Este 0 -- -- 49
2020-04-03 18:00:00 17.3 5 Sur 13 Sudeste 0 -- -- 45
2020-04-03 17:00:00 17.2 8 Este 18 Nordeste 0 -- -- 49
2020-04-03 16:00:00 15.9 8 Norte 16 Norte 0 -- -- 53
2020-04-03 15:00:00 16.3 4 Este 15 Norte 0 -- -- 47
2020-04-03 14:00:00 15.5 5 Este 15 Sudeste 0 -- -- 55
2020-04-03 13:00:00 14.2 8 Sudeste 18 Este 0 -- -- 59
2020-04-03 12:00:00 12.5 10 Sudeste 19 Sudeste 0 -- -- 68
2020-04-03 11:00:00 11.4 12 Este 18 Este 0 -- -- 73
2020-04-03 10:00:00 9.9 9 Este 18 Nordeste 0 -- -- 80
2020-04-03 09:00:00 7.8 8 Nordeste 16 Nordeste 0 -- -- 85
2020-04-03 08:00:00 5.5 8 Nordeste 11 Nordeste 0 -- -- 93
2020-04-03 07:00:00 4.9 2 Noroeste 6 Sur 0 -- -- 93
2020-04-03 06:00:00 6.3 3 Este 9 Nordeste 0 -- -- 89
2020-04-03 05:00:00 7.5 9 Nordeste 10 Nordeste 0 -- -- 84
2020-04-03 04:00:00 6.7 0 Calma 6 Nordeste 0 -- -- 91
2020-04-03 03:00:00 7.9 3 Oeste 6 Nordeste 0 -- -- 89
2020-04-03 02:00:00 8.2 2 Este 7 Noroeste 0 -- -- 90
2020-04-03 01:00:00 8.9 3 Nordeste 12 Noroeste 0 -- -- 87
2020-04-03 00:00:00 9.2 8 Noroeste 14 Norte 0 -- -- 85
2020-04-02 23:00:00 9.7 8 Norte 14 Noroeste 0 -- -- 84
2020-04-02 22:00:00 9.8 6 Noroeste 21 Noroeste 0 -- -- 85
2020-04-02 21:00:00 10.4 8 Noroeste 21 Oeste 0 -- -- 82
2020-04-02 20:00:00 12.2 17 Oeste 27 Noroeste 0 -- -- 70
2020-04-02 19:00:00 13.3 18 Oeste 27 Oeste 0 -- -- 63
2020-04-02 18:00:00 14.2 11 Noroeste 21 Noroeste 0 -- -- 53
2020-04-02 17:00:00 12.5 8 Nordeste 18 Norte 0 -- -- 55
2020-04-02 16:00:00 12.3 8 Nordeste 22 Norte 0 -- -- 67
2020-04-02 15:00:00 11.8 10 Nordeste 20 Nordeste 0 -- -- 69
2020-04-02 14:00:00 10.4 7 Noroeste 13 Oeste 0 -- -- 80
2020-04-02 13:00:00 8.6 4 Sudoeste 9 Oeste 0 -- -- 85
2020-04-02 12:00:00 7.6 3 Sur 9 Sudeste 0 -- -- 86
2020-04-02 11:00:00 6.5 4 Sudeste 7 Sudoeste 0.2 -- -- 91
2020-04-02 10:00:00 5.8 3 Sudoeste 6 Sudeste 0.4 -- -- 94
2020-04-02 09:00:00 5.3 2 Sudoeste 9 Oeste 1.8 -- -- 97
2020-04-02 08:00:00 5.5 6 Oeste 15 Nordeste 0.4 -- -- 94
2020-04-02 07:00:00 5.3 10 Nordeste 18 Nordeste 0 -- -- 92
2020-04-02 06:00:00 5.5 10 Nordeste 14 Nordeste 0 -- -- 90
2020-04-02 05:00:00 5.8 6 Este 10 Este 0 -- -- 89
2020-04-02 04:00:00 5.3 8 Este 10 Este 0 -- -- 92
2020-04-02 03:00:00 4.6 3 Este 8 Nordeste 0 -- -- 95
2020-04-02 02:00:00 5 3 Nordeste 8 Sur 0 -- -- 94
2020-04-02 01:00:00 5.3 3 Sur 5 Sur 0 -- -- 95
2020-04-02 00:00:00 6 0 Calma 6 Sudoeste 0 -- -- 94
2020-04-01 23:00:00 7 0 Calma 5 Sudoeste 0 -- -- 90
2020-04-01 22:00:00 7.7 3 Oeste 17 Sudoeste 0 -- -- 86
2020-04-01 21:00:00 8.8 12 Sudoeste 34 Sudoeste 0 -- -- 78
2020-04-01 20:00:00 11.4 10 Oeste 23 Oeste 0 -- -- 59
2020-04-01 19:00:00 13.3 13 Oeste 24 Oeste 0 -- -- 51
2020-04-01 18:00:00 13.5 14 Oeste 28 Oeste 0 -- -- 50
2020-04-01 17:00:00 13.3 17 Oeste 26 Sudoeste 0 -- -- 58
2020-04-01 16:00:00 12.9 12 Sudoeste 27 Oeste 0 -- -- 58
2020-04-01 15:00:00 12.5 14 Sudoeste 30 Oeste 0 -- -- 63
2020-04-01 14:00:00 12.2 13 Sudoeste 23 Sudoeste 0 -- -- 65
2020-04-01 13:00:00 10.7 11 Sudoeste 22 Sudoeste 0 -- -- 68
2020-04-01 12:00:00 10.2 13 Sudoeste 23 Sudoeste 0 -- -- 70
2020-04-01 11:00:00 9.5 12 Sudoeste 21 Sudoeste 0 -- -- 83
2020-04-01 10:00:00 8 7 Sudoeste 13 Sudoeste 0 -- -- 95
2020-04-01 09:00:00 7.2 6 Sudoeste 12 Sudoeste 0 -- -- 99
2020-04-01 08:00:00 7.1 3 Oeste 8 Oeste 0 -- -- 98
2020-04-01 07:00:00 7.1 5 Oeste 8 Oeste 0 -- -- 98
2020-04-01 06:00:00 7.1 0 Calma 13 Oeste 0.6 -- -- 97
2020-04-01 05:00:00 7.9 9 Sudoeste 15 Oeste 0.2 -- -- 94
2020-04-01 04:00:00 8.2 4 Sudeste 9 Sur 0.2 -- -- 97
2020-04-01 03:00:00 8.2 4 Sudeste 11 Sur 0 -- -- 98
2020-04-01 02:00:00 8 7 Sudeste 20 Sudoeste 2.2 -- -- 99
2020-04-01 01:00:00 8 11 Sudeste 21 Sudeste 1.2 -- -- 97
2020-04-01 00:00:00 8.4 11 Sudeste 19 Sur 1.6 -- -- 98
2020-03-31 23:00:00 8.7 10 Sudeste 18 Sudeste 0.6 -- -- 96
2020-03-31 22:00:00 8.9 5 Sudeste 10 Sur 0.8 -- -- 95
2020-03-31 21:00:00 9 3 Sudoeste 13 Oeste 1.8 -- -- 94
2020-03-31 20:00:00 9.6 12 Oeste 25 Oeste 5 -- -- 92
2020-03-31 19:00:00 10.8 5 Sudoeste 21 Sur 0.8 -- -- 93
2020-03-31 18:00:00 11 9 Sudeste 21 Sur 0.2 -- -- 90
2020-03-31 17:00:00 11.8 15 Sur 27 Sur 0 -- -- 82
2020-03-31 16:00:00 11.6 17 Sur 43 Sur 1.2 -- -- 87
2020-03-31 15:00:00 13.3 9 Sudoeste 28 Sur 0 -- -- 77
2020-03-31 14:00:00 10.9 14 Sudoeste 36 Sur 0 -- -- 86
2020-03-31 13:00:00 10.3 18 Sur 40 Sur 0.2 -- -- 90
2020-03-31 12:00:00 9.7 17 Sur 32 Sur 0 -- -- 90
2020-03-31 11:00:00 8.7 17 Sur 27 Sudeste 0.2 -- -- 95
2020-03-31 10:00:00 7.5 18 Este 28 Este 0.4 -- -- 96
2020-03-31 09:00:00 6.4 16 Este 30 Este 1.8 -- -- 98
2020-03-31 08:00:00 5.5 19 Este 30 Nordeste 0.2 -- -- 100
2020-03-31 07:00:00 4.9 18 Nordeste 28 Este 1.8 -- -- 99
2020-03-31 06:00:00 4.5 22 Nordeste 31 Nordeste 0.4 -- -- 99
2020-03-31 05:00:00 4.1 20 Nordeste 32 Nordeste 0.4 -- -- 100
2020-03-31 04:00:00 3.9 20 Este 32 Nordeste 0.6 -- -- 100
2020-03-31 03:00:00 4 20 Este 31 Este 0.4 -- -- 99
2020-03-31 02:00:00 3.7 21 Nordeste 33 Nordeste 0 -- -- 99
2020-03-31 01:00:00 3.7 23 Este 37 Este 0 -- -- 97
2020-03-31 00:00:00 3.8 21 Este 32 Este 0 -- -- 96
2020-03-30 23:00:00 4.2 21 Nordeste 36 Nordeste 0.4 -- -- 96
2020-03-30 22:00:00 5.1 20 Este 33 Nordeste 1.2 -- -- 95
2020-03-30 21:00:00 6 20 Nordeste 37 Nordeste 1.8 -- -- 96
2020-03-30 20:00:00 7 15 Nordeste 30 Nordeste 1.2 -- -- 93
2020-03-30 19:00:00 8.3 17 Nordeste 27 Nordeste 1.8 -- -- 97
2020-03-30 18:00:00 9.1 6 Sudeste 19 Este 1 -- -- 91
2020-03-30 17:00:00 9.2 13 Nordeste 24 Nordeste 1 -- -- 92
2020-03-30 16:00:00 9.6 13 Este 21 Este 0.2 -- -- 90
2020-03-30 15:00:00 9.4 15 Nordeste 21 Este 1.8 -- -- 91
2020-03-30 14:00:00 9.9 15 Este 24 Nordeste 0.2 -- -- 84
2020-03-30 13:00:00 11 12 Nordeste 21 Nordeste 0 -- -- 80
2020-03-30 12:00:00 10.1 6 Nordeste 11 Nordeste 0 -- -- 86
2020-03-30 11:00:00 10.2 0 Calma 5 Nordeste 0 -- -- 80
2020-03-30 10:00:00 9.1 2 Sur 4 Sudoeste 0 -- -- 86
2020-03-30 09:00:00 8.5 0 Calma 4 Sur 0 -- -- 85
2020-03-30 08:00:00 8.3 2 Noroeste 4 Oeste 0 -- -- 84
2020-03-30 07:00:00 8.3 0 Calma 5 Oeste 0 -- -- 83
2020-03-30 06:00:00 8.5 4 Oeste 6 Sudoeste 0 -- -- 76
2020-03-30 05:00:00 7.6 0 Calma 5 Oeste 0 -- -- 78
2020-03-30 04:00:00 7.6 2 Oeste 4 Norte 0 -- -- 79
2020-03-30 03:00:00 7.7 2 Este 3 Nordeste 0 -- -- 75
2020-03-30 02:00:00 7.8 0 Calma 4 Sudeste 0 -- -- 77
2020-03-30 01:00:00 8.8 2 Sudeste 4 Sudeste 0 -- -- 75
2020-03-30 00:00:00 9.7 0 Calma 4 Noroeste 0 -- -- 72
2020-03-29 23:00:00 10 2 Noroeste 6 Oeste 0 -- -- 71
2020-03-29 22:00:00 10.8 3 Noroeste 4 Noroeste 0 -- -- 64
2020-03-29 21:00:00 12.7 3 Oeste 10 Sudoeste 0 -- -- 59
2020-03-29 20:00:00 14.3 8 Sudoeste 22 Oeste 0 -- -- 50
2020-03-29 19:00:00 16.3 13 Oeste 23 Oeste 0 -- -- 40
2020-03-29 18:00:00 16.9 10 Oeste 18 Oeste 0 -- -- 39
2020-03-29 17:00:00 17.3 7 Oeste 19 Oeste 0 -- -- 41
2020-03-29 16:00:00 16.9 6 Sudoeste 17 Oeste 0 -- -- 35
2020-03-29 15:00:00 16.3 9 Oeste 19 Oeste 0 -- -- 37
2020-03-29 14:00:00 15.7 7 Sudoeste 14 Sur 0 -- -- 40
2020-03-29 13:00:00 14.2 5 Sur 10 Nordeste 0 -- -- 48
2020-03-29 12:00:00 12.5 6 Nordeste 14 Nordeste 0 -- -- 56
2020-03-29 11:00:00 10.2 8 Nordeste 12 Nordeste 0 -- -- 66
2020-03-29 10:00:00 8.2 3 Sudeste 5 Sudeste 0 -- -- 73
2020-03-29 09:00:00 4.8 0 Calma 5 Sur 0 -- -- 84
2020-03-29 08:00:00 4 5 Nordeste 10 Nordeste 0 -- -- 84
2020-03-29 07:00:00 4.4 6 Nordeste 10 Nordeste 0 -- -- 82
2020-03-29 06:00:00 3.1 3 Nordeste 5 Nordeste 0 -- -- 89
2020-03-29 05:00:00 4.3 3 Norte 15 Nordeste 0 -- -- 83
2020-03-29 03:00:00 6.5 15 Nordeste 19 Nordeste 0 -- -- 71
2020-03-29 01:00:00 7.4 12 Nordeste 17 Nordeste 0 -- -- 66
2020-03-29 00:00:00 8 13 Nordeste 21 Este 0 -- -- 64
2020-03-28 23:00:00 8.1 13 Nordeste 20 Nordeste 0 -- -- 62
2020-03-28 22:00:00 9.4 16 Nordeste 22 Nordeste 0 -- -- 51
2020-03-28 21:00:00 9.8 14 Nordeste 22 Este 0 -- -- 47
2020-03-28 20:00:00 10.4 11 Nordeste 23 Nordeste 0 -- -- 48
2020-03-28 19:00:00 13.3 13 Nordeste 22 Nordeste 0 -- -- 40
2020-03-28 18:00:00 14.3 9 Nordeste 23 Este 0 -- -- 44
2020-03-28 17:00:00 14.7 10 Este 25 Sudeste 0 -- -- 46
2020-03-28 16:00:00 14.2 9 Sudeste 20 Este 0 -- -- 46
2020-03-28 15:00:00 13.7 12 Este 25 Este 0 -- -- 50
2020-03-28 14:00:00 12.6 15 Este 26 Este 0 -- -- 57
2020-03-28 13:00:00 11.3 15 Este 30 Este 0 -- -- 62
2020-03-28 12:00:00 10.2 14 Este 28 Este 0 -- -- 67
2020-03-28 11:00:00 8.1 15 Este 27 Este 0 -- -- 77
2020-03-28 10:00:00 4.3 16 Este 26 Este 0 -- -- 92
2020-03-28 09:00:00 2.6 16 Este 27 Este 0 -- -- 99
2020-03-28 08:00:00 2.1 17 Este 27 Nordeste 0 -- -- 98
2020-03-28 07:00:00 2.6 18 Este 29 Este 0 -- -- 95
2020-03-28 06:00:00 2.6 20 Este 27 Este 0 -- -- 97
2020-03-28 05:00:00 2.2 17 Este 29 Este 0 -- -- 96
2020-03-28 04:00:00 2.4 19 Este 31 Nordeste 0 -- -- 95
2020-03-28 03:00:00 2.7 19 Este 32 Nordeste 0 -- -- 94
2020-03-28 02:00:00 2.9 15 Este 28 Nordeste 0 -- -- 93
2020-03-28 01:00:00 2.9 11 Este 26 Este 0 -- -- 91
2020-03-28 00:00:00 3.2 13 Este 36 Este 0 -- -- 90
2020-03-27 23:00:00 3.4 21 Este 36 Nordeste 0 -- -- 91
2020-03-27 22:00:00 3.8 23 Este 40 Este 0 -- -- 87
2020-03-27 21:00:00 4 24 Este 39 Este 0 -- -- 87
2020-03-27 20:00:00 4.2 16 Nordeste 33 Este 0 -- -- 86
2020-03-27 19:00:00 5.8 21 Nordeste 32 Nordeste 0 -- -- 79
2020-03-27 18:00:00 6.2 17 Este 31 Nordeste 0 -- -- 79
2020-03-27 17:00:00 6.3 19 Nordeste 37 Este 0 -- -- 79
2020-03-27 16:00:00 6.1 24 Nordeste 39 Este 0 -- -- 79
2020-03-27 15:00:00 6.7 23 Nordeste 35 Nordeste 0 -- -- 77
2020-03-27 14:00:00 7.5 19 Nordeste 32 Nordeste 0 -- -- 75
2020-03-27 13:00:00 7.4 11 Este 26 Este 0 -- -- 78
2020-03-27 12:00:00 7.2 14 Nordeste 25 Nordeste 0 -- -- 79
2020-03-27 11:00:00 6 12 Nordeste 26 Nordeste 0 -- -- 82
2020-03-27 10:00:00 5.3 17 Nordeste 24 Nordeste 0 -- -- 83
2020-03-27 09:00:00 4.7 13 Nordeste 22 Nordeste 0 -- -- 84
2020-03-27 08:00:00 4.4 8 Este 23 Nordeste 0 -- -- 83
2020-03-27 07:00:00 4.2 12 Nordeste 23 Nordeste 0 -- -- 84
2020-03-27 06:00:00 3.7 17 Nordeste 23 Nordeste 0 -- -- 85
2020-03-27 05:00:00 4 14 Nordeste 22 Nordeste 0 -- -- 83
2020-03-27 04:00:00 4.9 10 Este 13 Este 0 -- -- 73
2020-03-27 03:00:00 4.5 5 Nordeste 8 Nordeste 0 -- -- 80
2020-03-27 02:00:00 6.2 3 Oeste 21 Este 0 -- -- 72
2020-03-27 01:00:00 7.8 16 Nordeste 24 Este 0 -- -- 58
2020-03-27 00:00:00 8.7 16 Nordeste 26 Este 0 -- -- 54
2020-03-26 23:00:00 9.5 13 Nordeste 17 Este 0 -- -- 58
2020-03-26 22:00:00 11.1 10 Norte 19 Norte 0 -- -- 52
2020-03-26 21:00:00 10.3 5 Noroeste 13 Noroeste 0 -- -- 61
2020-03-26 20:00:00 12.5 9 Oeste 24 Oeste 0 -- -- 54
2020-03-26 19:00:00 14.9 15 Oeste 33 Oeste 0 -- -- 47
2020-03-26 18:00:00 16 22 Oeste 36 Oeste 0 -- -- 40
2020-03-26 17:00:00 16.3 23 Oeste 37 Oeste 0 -- -- 44
2020-03-26 16:00:00 16.1 21 Oeste 36 Oeste 0 -- -- 54
2020-03-26 15:00:00 15.8 21 Oeste 34 Oeste 0 -- -- 55
2020-03-26 14:00:00 15.6 18 Oeste 31 Sudoeste 0 -- -- 54
2020-03-26 13:00:00 13.9 11 Oeste 23 Oeste 0 -- -- 70
2020-03-26 12:00:00 12.6 10 Oeste 18 Oeste 0 -- -- 76
2020-03-26 11:00:00 11.6 7 Oeste 17 Oeste 0 -- -- 81
2020-03-26 10:00:00 10.3 11 Oeste 18 Noroeste 0 -- -- 88
2020-03-26 09:00:00 9.1 12 Noroeste 19 Noroeste 0 -- -- 93
2020-03-26 08:00:00 8.6 8 Noroeste 15 Noroeste 0 -- -- 96
2020-03-26 07:00:00 8.2 9 Oeste 13 Noroeste 0 -- -- 97
2020-03-26 06:00:00 7.6 5 Oeste 11 Oeste 0 -- -- 93
2020-03-26 05:00:00 7.1 7 Oeste 9 Oeste 0 -- -- 93
2020-03-26 04:00:00 8.5 5 Sudoeste 20 Oeste 0 -- -- 88
2020-03-26 03:00:00 9.1 12 Oeste 18 Oeste 0 -- -- 85
2020-03-26 02:00:00 9.2 6 Oeste 16 Oeste 0 -- -- 86
2020-03-26 01:00:00 9 7 Oeste 19 Oeste 0 -- -- 84
2020-03-26 00:00:00 8.6 7 Oeste 14 Oeste 0 -- -- 86
2020-03-25 23:00:00 7.7 3 Noroeste 6 Oeste 0 -- -- 94
2020-03-25 22:00:00 8.4 0 Calma 2 Nordeste 0 -- -- 94
2020-03-25 21:00:00 9 3 Nordeste 4 Nordeste 0 -- -- 92
2020-03-25 20:00:00 10.7 0 Calma 23 Nordeste 0.6 -- -- 86
2020-03-25 19:00:00 12.8 13 Norte 26 Nordeste 0.8 -- -- 71
2020-03-25 18:00:00 15.1 4 Sudoeste 9 Sudoeste 0 -- -- 53
2020-03-25 17:00:00 15.1 4 Sur 17 Sudoeste 0 -- -- 50
2020-03-25 16:00:00 15.3 9 Oeste 17 Oeste 0 -- -- 50
2020-03-25 15:00:00 15.1 10 Oeste 21 Oeste 0 -- -- 52
2020-03-25 14:00:00 14.9 6 Oeste 15 Oeste 0 -- -- 50
2020-03-25 13:00:00 13.3 4 Este 13 Sudeste 0 -- -- 52
2020-03-25 12:00:00 12.1 6 Sur 14 Sudeste 0 -- -- 54
2020-03-25 11:00:00 10.4 10 Sudeste 15 Sudeste 0 -- -- 62
2020-03-25 10:00:00 8.1 7 Nordeste 15 Nordeste 0 -- -- 74
2020-03-25 09:00:00 6.6 9 Nordeste 14 Este 0 -- -- 84
2020-03-25 08:00:00 4.4 3 Nordeste 24 Nordeste 0 -- -- 94
2020-03-25 07:00:00 4.4 18 Nordeste 25 Este 0 -- -- 92
2020-03-25 06:00:00 5.2 16 Este 24 Nordeste 0 -- -- 89
2020-03-25 05:00:00 5.5 14 Este 22 Nordeste 0 -- -- 88
2020-03-25 04:00:00 5.5 15 Nordeste 25 Nordeste 0 -- -- 89
2020-03-25 03:00:00 6.2 17 Nordeste 26 Nordeste 0 -- -- 84
2020-03-25 02:00:00 7 15 Nordeste 34 Este 0 -- -- 82
2020-03-25 01:00:00 7.1 24 Nordeste 37 Este 0 -- -- 83
2020-03-25 00:00:00 7.6 18 Este 38 Este 0 -- -- 84
2020-03-24 23:00:00 8.2 27 Este 45 Este 0 -- -- 83
2020-03-24 22:00:00 8.2 20 Este 37 Este 0 -- -- 84
2020-03-24 21:00:00 8.1 23 Este 40 Nordeste 0 -- -- 85
2020-03-24 20:00:00 8.7 26 Este 49 Este 0 -- -- 84
2020-03-24 19:00:00 9.7 32 Este 57 Este 0 -- -- 79
2020-03-24 18:00:00 10.9 35 Este 55 Este 0 -- -- 77
2020-03-24 17:00:00 12.1 32 Este 62 Este 0 -- -- 73
2020-03-24 16:00:00 12.2 35 Este 55 Este 0 -- -- 73
2020-03-24 15:00:00 12.2 33 Este 54 Nordeste 0 -- -- 74
2020-03-24 14:00:00 11.7 31 Este 56 Este 0 -- -- 77
2020-03-24 13:00:00 11 32 Este 55 Este 0 -- -- 82
2020-03-24 12:00:00 10.3 33 Este 53 Este 0 -- -- 83
2020-03-24 11:00:00 10.8 32 Este 58 Este 0 -- -- 78
2020-03-24 10:00:00 9.4 31 Este 45 Este 0 -- -- 82
2020-03-24 09:00:00 8.2 28 Este 42 Nordeste 0 -- -- 85
2020-03-24 08:00:00 7.8 28 Este 43 Este 0 -- -- 90
2020-03-24 07:00:00 7.9 26 Este 40 Este 0 -- -- 93
2020-03-24 06:00:00 7.9 23 Este 42 Este 0 -- -- 96
2020-03-24 05:00:00 7.8 23 Nordeste 42 Este 0 -- -- 95
2020-03-24 04:00:00 7.8 26 Este 40 Nordeste 0.2 -- -- 95
2020-03-24 03:00:00 7.7 23 Este 36 Nordeste 0 -- -- 95
2020-03-24 02:00:00 7.8 25 Este 41 Este 0 -- -- 94
2020-03-24 01:00:00 8.7 22 Este 33 Este 0.2 -- -- 95
2020-03-24 00:00:00 8.6 17 Este 34 Este 0.6 -- -- 96
2020-03-23 23:00:00 8.6 22 Este 34 Este 0.6 -- -- 96
2020-03-23 22:00:00 9.1 22 Este 41 Este 2.6 -- -- 92
2020-03-23 21:00:00 9.8 19 Este 29 Nordeste 0 -- -- 85
2020-03-23 20:00:00 9.9 18 Nordeste 28 Este 0 -- -- 83
2020-03-23 19:00:00 10.5 22 Este 52 Este 0.2 -- -- 74
2020-03-23 18:00:00 11.7 20 Este 39 Este 0 -- -- 74
2020-03-23 17:00:00 14.5 18 Este 33 Nordeste 0 -- -- 52
2020-03-23 16:00:00 13.4 13 Este 30 Este 0 -- -- 61
2020-03-23 15:00:00 13.7 17 Sudeste 32 Este 0 -- -- 57
2020-03-23 14:00:00 12.5 15 Este 27 Este 0 -- -- 65
2020-03-23 13:00:00 11.9 15 Este 26 Este 0 -- -- 69
2020-03-23 12:00:00 10.6 12 Nordeste 23 Nordeste 0 -- -- 80
2020-03-23 11:00:00 7.8 9 Nordeste 21 Nordeste 0 -- -- 94
2020-03-23 10:00:00 7 13 Este 22 Nordeste 0 -- -- 98
2020-03-23 09:00:00 6.1 15 Nordeste 26 Nordeste 0.2 -- -- 99
2020-03-23 08:00:00 5.7 18 Nordeste 27 Nordeste 0 -- -- 100
2020-03-23 07:00:00 5.4 12 Este 20 Nordeste 0 -- -- 100
2020-03-23 06:00:00 5.2 10 Este 24 Nordeste 0 -- -- 99
2020-03-23 05:00:00 5.7 15 Nordeste 23 Nordeste 0 -- -- 98
2020-03-23 04:00:00 6 11 Nordeste 21 Este 0 -- -- 98
2020-03-23 03:00:00 6.6 8 Nordeste 20 Nordeste 0 -- -- 96
2020-03-23 02:00:00 6.7 13 Nordeste 19 Nordeste 0.2 -- -- 98
2020-03-23 01:00:00 6.9 10 Este 14 Nordeste 0 -- -- 97
2020-03-23 00:00:00 7.1 8 Nordeste 11 Nordeste 0 -- -- 95
2020-03-22 23:00:00 7.2 5 Este 8 Nordeste 0 -- -- 94
2020-03-22 22:00:00 7.5 5 Este 10 Este 0 -- -- 91
2020-03-22 21:00:00 7.5 8 Nordeste 11 Nordeste 0 -- -- 91
2020-03-22 20:00:00 7.5 5 Norte 16 Nordeste 0.2 -- -- 92
2020-03-22 19:00:00 8.3 5 Nordeste 22 Nordeste 0.4 -- -- 91
2020-03-22 18:00:00 10.7 13 Este 24 Nordeste 0 -- -- 70
2020-03-22 17:00:00 10.7 7 Nordeste 17 Nordeste 0 -- -- 74
2020-03-22 16:00:00 9.3 7 Norte 15 Norte 0.2 -- -- 82
2020-03-22 15:00:00 7.9 8 Nordeste 17 Nordeste 0.2 -- -- 89
2020-03-22 14:00:00 7.5 11 Nordeste 25 Nordeste 0.2 -- -- 91
2020-03-22 13:00:00 8.2 14 Nordeste 25 Este 0 -- -- 88
2020-03-22 12:00:00 7.6 14 Este 22 Este 0 -- -- 88
2020-03-22 11:00:00 7.4 10 Este 18 Este 0 -- -- 92
2020-03-22 10:00:00 6.7 12 Nordeste 18 Este 0 -- -- 92
2020-03-22 09:00:00 5.7 7 Nordeste 11 Nordeste 0 -- -- 100
2020-03-22 08:00:00 4.7 5 Nordeste 15 Este 0 -- -- 100
2020-03-22 07:00:00 4.4 5 Este 11 Nordeste 0 -- -- 99
2020-03-22 06:00:00 4.8 3 Nordeste 12 Este 0 -- -- 96
2020-03-22 05:00:00 5.6 6 Este 14 Este 0 -- -- 97
2020-03-22 04:00:00 5.7 8 Este 18 Este 0 -- -- 98
2020-03-22 03:00:00 5.4 11 Nordeste 16 Nordeste 0 -- -- 97
2020-03-22 02:00:00 5.7 8 Este 15 Este 0 -- -- 94
2020-03-22 01:00:00 6.6 7 Este 13 Este 0 -- -- 94
2020-03-22 00:00:00 6.6 7 Nordeste 16 Nordeste 0 -- -- 96
2020-03-21 23:00:00 6.6 9 Nordeste 19 Este 2 -- -- 95
2020-03-21 22:00:00 7.1 9 Este 16 Sudeste 2.4 -- -- 92
2020-03-21 21:00:00 7.5 7 Sur 13 Sudoeste 1.4 -- -- 92
2020-03-21 20:00:00 8.2 4 Sudoeste 20 Sudoeste 1.2 -- -- 88
2020-03-21 19:00:00 10.1 9 Sudeste 21 Este 0 -- -- 69
2020-03-21 18:00:00 11 6 Este 17 Este 0 -- -- 63
2020-03-21 17:00:00 11.1 9 Este 14 Este 0 -- -- 64
2020-03-21 16:00:00 11.2 4 Sudeste 14 Este 0 -- -- 63
2020-03-21 15:00:00 10.9 8 Sudeste 17 Sudeste 0 -- -- 68
2020-03-21 14:00:00 10.5 9 Sur 19 Sur 0 -- -- 71
2020-03-21 13:00:00 9 10 Sur 16 Sur 0 -- -- 79
2020-03-21 12:00:00 7.3 6 Sudeste 16 Sudeste 0 -- -- 88
2020-03-21 11:00:00 7 8 Sudeste 12 Sudeste 0 -- -- 91
2020-03-21 10:00:00 6 4 Nordeste 9 Nordeste 0.6 -- -- 93
2020-03-21 09:00:00 5.6 3 Sudoeste 22 Sudoeste 1.4 -- -- 93
2020-03-21 08:00:00 5.9 13 Sudoeste 27 Oeste 0.4 -- -- 92
2020-03-21 07:00:00 6.7 16 Oeste 27 Oeste 3.4 -- -- 92
2020-03-21 06:00:00 8.1 11 Sudoeste 25 Sudoeste 2 -- -- 95
2020-03-21 05:00:00 8.3 10 Este 20 Nordeste 0 -- -- 91
2020-03-21 04:00:00 8 8 Nordeste 18 Este 0 -- -- 93
2020-03-21 03:00:00 8 12 Nordeste 19 Nordeste 0.2 -- -- 93
2020-03-21 02:00:00 8.1 5 Nordeste 25 Nordeste 0 -- -- 90
2020-03-21 01:00:00 8.3 19 Nordeste 32 Este 0 -- -- 89
2020-03-21 00:00:00 8.9 24 Nordeste 32 Nordeste 0 -- -- 86
2020-03-20 23:00:00 9.8 17 Nordeste 27 Nordeste 0 -- -- 85
2020-03-20 22:00:00 11 11 Nordeste 18 Nordeste 0 -- -- 79
2020-03-20 21:00:00 11.7 3 Norte 14 Nordeste 0 -- -- 83
2020-03-20 20:00:00 14.1 3 Oeste 10 Nordeste 0 -- -- 71
2020-03-20 19:00:00 15.3 8 Este 13 Este 0 -- -- 61
2020-03-20 18:00:00 16.6 3 Sudeste 12 Este 0 -- -- 56
2020-03-20 17:00:00 16.9 6 Este 13 Este 0 -- -- 53
2020-03-20 16:00:00 16.9 5 Este 17 Este 0 -- -- 52
2020-03-20 15:00:00 16.6 9 Nordeste 18 Nordeste 0 -- -- 54
2020-03-20 14:00:00 16 9 Este 21 Este 0 -- -- 56
2020-03-20 13:00:00 14.8 12 Este 21 Este 0 -- -- 59
2020-03-20 12:00:00 13.9 7 Este 13 Este 0 -- -- 63
2020-03-20 11:00:00 11.6 8 Sudeste 19 Este 0 -- -- 73
2020-03-20 10:00:00 9.4 14 Este 24 Este 0 -- -- 79
2020-03-20 09:00:00 7.9 13 Este 30 Nordeste 0 -- -- 86
2020-03-20 08:00:00 7.3 16 Este 25 Este 0 -- -- 91
2020-03-20 07:00:00 7.6 14 Este 23 Este 0 -- -- 89
2020-03-20 06:00:00 7.4 13 Nordeste 24 Nordeste 0 -- -- 92
2020-03-20 05:00:00 7 15 Nordeste 22 Nordeste 0 -- -- 95
2020-03-20 04:00:00 7.7 15 Nordeste 23 Nordeste 0 -- -- 91
2020-03-20 03:00:00 8.3 17 Nordeste 25 Nordeste 0 -- -- 89
2020-03-20 02:00:00 8.8 16 Nordeste 22 Nordeste 0 -- -- 87
2020-03-20 01:00:00 9.1 14 Nordeste 25 Nordeste 0 -- -- 87
2020-03-20 00:00:00 9.8 15 Nordeste 26 Nordeste 0 -- -- 82
2020-03-19 23:00:00 10.6 15 Nordeste 30 Nordeste 0 -- -- 79
2020-03-19 22:00:00 11.4 22 Nordeste 35 Nordeste 0 -- -- 74
2020-03-19 21:00:00 12.6 19 Nordeste 32 Nordeste 0 -- -- 69
2020-03-19 20:00:00 13.4 15 Nordeste 25 Nordeste 0 -- -- 68
2020-03-19 19:00:00 15.1 9 Nordeste 16 Nordeste 0 -- -- 64
2020-03-19 18:00:00 16.5 10 Nordeste 22 Nordeste 0 -- -- 55
2020-03-19 17:00:00 16.7 12 Nordeste 25 Nordeste 0 -- -- 53
2020-03-19 16:00:00 16.4 13 Este 28 Este 0 -- -- 57
2020-03-19 15:00:00 15.7 13 Nordeste 25 Nordeste 0 -- -- 59
2020-03-19 14:00:00 14.9 14 Sudeste 27 Nordeste 0 -- -- 61
2020-03-19 13:00:00 13.6 14 Nordeste 27 Nordeste 0 -- -- 67
2020-03-19 12:00:00 12.2 15 Nordeste 25 Nordeste 0 -- -- 72
2020-03-19 11:00:00 9.7 17 Nordeste 27 Este 0 -- -- 80
2020-03-19 10:00:00 7.3 19 Este 29 Este 0 -- -- 89
2020-03-19 09:00:00 5.7 23 Este 39 Este 0 -- -- 94
2020-03-19 08:00:00 5 26 Nordeste 37 Nordeste 0 -- -- 95
2020-03-19 07:00:00 5 21 Nordeste 31 Nordeste 0 -- -- 94
2020-03-19 06:00:00 4.8 21 Nordeste 28 Nordeste 0 -- -- 94
2020-03-19 05:00:00 5.4 15 Nordeste 33 Este 0 -- -- 89
2020-03-19 04:00:00 6.1 25 Este 36 Este 0 -- -- 83
2020-03-19 03:00:00 6.9 21 Este 39 Este 0 -- -- 78
2020-03-19 02:00:00 7.7 25 Este 37 Este 0 -- -- 76
2020-03-19 01:00:00 8.4 20 Nordeste 35 Este 0 -- -- 78
2020-03-19 00:00:00 8.9 20 Nordeste 35 Nordeste 0 -- -- 77
2020-03-18 23:00:00 9.6 22 Nordeste 37 Este 0 -- -- 76
2020-03-18 22:00:00 11 23 Nordeste 40 Este 0 -- -- 74
2020-03-18 21:00:00 11.4 24 Este 38 Este 0 -- -- 74
2020-03-18 20:00:00 11.4 23 Este 41 Este 0 -- -- 76
2020-03-18 19:00:00 11.8 26 Este 52 Este 0 -- -- 73
2020-03-18 18:00:00 12.9 33 Nordeste 50 Este 0 -- -- 70
2020-03-18 17:00:00 13.8 27 Nordeste 51 Este 0 -- -- 69
2020-03-18 16:00:00 14.7 30 Nordeste 50 Este 0 -- -- 68
2020-03-18 15:00:00 15.6 31 Nordeste 48 Nordeste 0 -- -- 66
2020-03-18 14:00:00 15.5 31 Este 50 Este 0 -- -- 67
2020-03-18 13:00:00 14.3 35 Este 56 Este 0 -- -- 71
2020-03-18 12:00:00 12.9 36 Este 56 Este 0 -- -- 74
2020-03-18 11:00:00 12.2 36 Este 59 Nordeste 0 -- -- 74
2020-03-18 10:00:00 10.9 33 Este 57 Este 0 -- -- 78
2020-03-18 09:00:00 9.2 32 Este 53 Nordeste 0 -- -- 84
2020-03-18 08:00:00 8.1 28 Este 52 Este 0 -- -- 90
2020-03-18 07:00:00 8.2 36 Este 58 Nordeste 0 -- -- 89
2020-03-18 06:00:00 8.4 35 Este 52 Nordeste 0 -- -- 88
2020-03-18 05:00:00 8.4 29 Este 52 Nordeste 0 -- -- 89
2020-03-18 04:00:00 8.5 29 Nordeste 46 Este 0 -- -- 90
2020-03-18 03:00:00 8.9 28 Nordeste 52 Este 0 -- -- 89
2020-03-18 02:00:00 9.4 33 Este 50 Nordeste 0 -- -- 89
2020-03-18 01:00:00 10.2 23 Este 40 Este 0 -- -- 91
2020-03-18 00:00:00 10.9 26 Nordeste 44 Este 0 -- -- 90
2020-03-17 23:00:00 11.2 26 Nordeste 44 Este 0 -- -- 89
2020-03-17 22:00:00 11 30 Este 44 Este 0 -- -- 91
2020-03-17 21:00:00 11.3 27 Este 41 Este 0 -- -- 87
2020-03-17 20:00:00 12.6 25 Este 50 Nordeste 0 -- -- 79
2020-03-17 19:00:00 13.2 21 Nordeste 34 Nordeste 0 -- -- 81
2020-03-17 18:00:00 14.7 10 Este 21 Este 0 -- -- 55
2020-03-17 17:00:00 14.9 15 Este 35 Este 0 -- -- 48
2020-03-17 16:00:00 14.9 26 Este 39 Este 0 -- -- 43
2020-03-17 15:00:00 15 24 Este 43 Este 0 -- -- 45
2020-03-17 14:00:00 13.7 28 Este 41 Este 0 -- -- 42
2020-03-17 13:00:00 12 23 Este 39 Este 0 -- -- 59
2020-03-17 12:00:00 10.4 20 Este 33 Este 0 -- -- 68
2020-03-17 11:00:00 8.5 19 Nordeste 33 Nordeste 0 -- -- 76
2020-03-17 10:00:00 5.6 22 Este 33 Nordeste 0 -- -- 86
2020-03-17 09:00:00 3.1 23 Nordeste 32 Nordeste 0 -- -- 93
2020-03-17 08:00:00 2.1 19 Nordeste 32 Nordeste 0 -- -- 96
2020-03-17 07:00:00 2.1 19 Nordeste 34 Nordeste 0 -- -- 95
2020-03-17 06:00:00 2.4 14 Este 37 Nordeste 0 -- -- 92
2020-03-17 05:00:00 3.3 22 Nordeste 35 Nordeste 0 -- -- 90
2020-03-17 04:00:00 3.4 21 Nordeste 31 Nordeste 0 -- -- 87
2020-03-17 03:00:00 3.9 20 Este 32 Este 0 -- -- 82
2020-03-17 02:00:00 3.1 18 Nordeste 27 Nordeste 0 -- -- 90
2020-03-17 01:00:00 3.4 14 Nordeste 24 Nordeste 0 -- -- 88
2020-03-17 00:00:00 3.3 15 Nordeste 24 Nordeste 0 -- -- 91
2020-03-16 23:00:00 3.4 13 Nordeste 17 Nordeste 0 -- -- 90
2020-03-16 22:00:00 3.6 11 Nordeste 15 Nordeste 0 -- -- 91
2020-03-16 21:00:00 3.6 6 Este 10 Sudeste 0 -- -- 92
2020-03-16 20:00:00 4.4 4 Sudeste 6 Sur 0 -- -- 89
2020-03-16 19:00:00 5.4 8 Sudoeste 15 Sur 0 -- -- 82
2020-03-16 18:00:00 6.5 7 Sur 21 Sudoeste 0 -- -- 79
2020-03-16 17:00:00 6.5 11 Sudoeste 27 Sudoeste 0 -- -- 74
2020-03-16 16:00:00 8 10 Sur 21 Sur 0 -- -- 61
2020-03-16 15:00:00 8.3 13 Sudoeste 26 Sudoeste 0 -- -- 66
2020-03-16 14:00:00 5.8 12 Sudoeste 24 Sudoeste 0 -- -- 74
2020-03-16 13:00:00 5.3 10 Sudoeste 22 Sudoeste 0 -- -- 77
2020-03-16 12:00:00 4.2 14 Sudoeste 26 Sudoeste 0 -- -- 80
2020-03-16 11:00:00 3.8 16 Oeste 28 Oeste 0 -- -- 81
2020-03-16 10:00:00 3.2 17 Sudoeste 28 Oeste 0 -- -- 87
2020-03-16 09:00:00 2.7 17 Sudoeste 27 Noroeste 0 -- -- 90
2020-03-16 08:00:00 1.8 13 Oeste 33 Oeste 0 -- -- 90
2020-03-16 07:00:00 2.1 15 Oeste 32 Oeste 0 -- -- 88
2020-03-16 06:00:00 2.3 20 Oeste 34 Oeste 0 -- -- 88
2020-03-16 05:00:00 3.3 16 Oeste 41 Sudoeste 0 -- -- 91
2020-03-16 04:00:00 4.5 19 Oeste 35 Sudoeste 0.4 -- -- 93
2020-03-16 03:00:00 5.6 25 Oeste 39 Oeste 0.8 -- -- 93
2020-03-16 02:00:00 7.4 21 Oeste 36 Oeste 1.4 -- -- 92
2020-03-16 01:00:00 9.2 15 Oeste 24 Oeste 1 -- -- 90
2020-03-16 00:00:00 10 10 Oeste 21 Oeste 0 -- -- 94
2020-03-15 23:00:00 10.7 11 Sudoeste 38 Sudoeste 8.8 -- -- 95
2020-03-15 22:00:00 10.1 9 Sur 17 Sur 0.4 -- -- 93
2020-03-15 21:00:00 9.8 11 Sudeste 20 Sudeste 7.6 -- -- 92
2020-03-15 20:00:00 10.5 6 Sudoeste 32 Noroeste 11.6 -- -- 91
2020-03-15 19:00:00 12.3 14 Norte 37 Noroeste 1 -- -- 78
2020-03-15 18:00:00 15.1 4 Sudeste 9 Sudeste 0 -- -- 80
2020-03-15 17:00:00 12.6 4 Este 59 Oeste 3.2 -- -- 81
2020-03-15 16:00:00 19.5 13 Sudoeste 29 Oeste 0 -- -- 51
2020-03-15 15:00:00 20.1 13 Sudoeste 28 Sudoeste 0 -- -- 54
2020-03-15 14:00:00 19.3 13 Sudoeste 26 Sudoeste 0 -- -- 57
2020-03-15 13:00:00 18.7 13 Sudoeste 23 Sudoeste 0 -- -- 61
2020-03-15 12:00:00 16.8 11 Oeste 18 Oeste 0 -- -- 69
2020-03-15 11:00:00 16.2 8 Oeste 14 Oeste 0 -- -- 71
2020-03-15 10:00:00 15 5 Sur 10 Sur 0 -- -- 74
2020-03-15 09:00:00 12.2 3 Sudeste 8 Sudeste 0 -- -- 86
2020-03-15 08:00:00 8.9 0 Calma 4 Norte 0 -- -- 97
2020-03-15 07:00:00 8.9 0 Calma -- -- 0 -- -- 95
2020-03-15 06:00:00 9 0 Calma 3 Nordeste 0 -- -- 95
2020-03-15 05:00:00 9.4 0 Calma 4 Nordeste 0 -- -- 93
2020-03-15 04:00:00 9.9 0 Calma 5 Nordeste 0 -- -- 92
2020-03-15 03:00:00 10.1 3 Nordeste 4 Nordeste 0 -- -- 93
2020-03-15 02:00:00 10.7 3 Nordeste 5 Nordeste 0 -- -- 90
2020-03-15 01:00:00 10.9 4 Nordeste 5 Nordeste 0 -- -- 88
2020-03-15 00:00:00 11.9 0 Calma 8 Noroeste 0 -- -- 85
2020-03-14 23:00:00 14.2 7 Noroeste 9 Noroeste 0 -- -- 74
2020-03-14 22:00:00 13.3 6 Noroeste 7 Noroeste 0 -- -- 74
2020-03-14 21:00:00 13.8 3 Nordeste 5 Nordeste 0 -- -- 72
2020-03-14 20:00:00 16.3 0 Calma 8 Noroeste 0 -- -- 59
2020-03-14 19:00:00 19.7 4 Noroeste 12 Noroeste 0 -- -- 47
2020-03-14 18:00:00 21.3 2 Sudoeste 11 Sudoeste 0 -- -- 40
2020-03-14 17:00:00 20.2 2 Nordeste 10 Nordeste 0 -- -- 45
2020-03-14 16:00:00 20.1 8 Nordeste 15 Nordeste 0 -- -- 49
2020-03-14 15:00:00 20.4 5 Sur 18 Noroeste 0 -- -- 46
2020-03-14 14:00:00 19.4 8 Oeste 31 Oeste 0 -- -- 62
2020-03-14 13:00:00 17.5 5 Sudoeste 12 Sudoeste 0 -- -- 72
2020-03-14 12:00:00 15.8 4 Sudoeste 14 Sur 0 -- -- 81
2020-03-14 11:00:00 13 9 Sudeste 12 Sudeste 0 -- -- 94
2020-03-14 10:00:00 11.2 6 Sudeste 12 Este 0 -- -- 100
2020-03-14 09:00:00 10.9 4 Noroeste 12 Noroeste 0 -- -- 100
2020-03-14 08:00:00 10.4 6 Noroeste 10 Noroeste 0 -- -- 100
2020-03-14 07:00:00 8.7 0 Calma 5 Sudeste 0 -- -- 99
2020-03-14 06:00:00 8.3 0 Calma 3 Nordeste 0 -- -- 97
2020-03-14 05:00:00 8.6 2 Nordeste 3 Este 0 -- -- 96
2020-03-14 04:00:00 9.3 0 Calma 6 Noroeste 0 -- -- 96
2020-03-14 03:00:00 10.1 5 Noroeste 9 Noroeste 0 -- -- 97
2020-03-14 02:00:00 9.5 0 Calma 3 Oeste 0 -- -- 95
2020-03-14 01:00:00 10.1 0 Calma 4 Nordeste 0 -- -- 94
2020-03-14 00:00:00 10.5 0 Calma 5 Noroeste 0 -- -- 90
2020-03-13 23:00:00 11.6 3 Noroeste 10 Noroeste 0 -- -- 86
2020-03-13 22:00:00 13.5 7 Noroeste 9 Noroeste 0 -- -- 79
2020-03-13 21:00:00 14.6 3 Noroeste 9 Oeste 0 -- -- 77
2020-03-13 20:00:00 16.6 7 Noroeste 14 Noroeste 0 -- -- 62
2020-03-13 19:00:00 18.7 11 Noroeste 21 Oeste 0 -- -- 57
2020-03-13 18:00:00 20.5 9 Oeste 24 Oeste 0 -- -- 50
2020-03-13 17:00:00 21.5 12 Oeste 22 Oeste 0 -- -- 43
2020-03-13 16:00:00 21.5 13 Sudoeste 25 Oeste 0 -- -- 42
2020-03-13 15:00:00 21 12 Oeste 25 Oeste 0 -- -- 48
2020-03-13 14:00:00 20.7 12 Oeste 23 Oeste 0 -- -- 50
2020-03-13 13:00:00 19.4 9 Noroeste 19 Noroeste 0 -- -- 58
2020-03-13 12:00:00 18.5 8 Sudoeste 16 Sudoeste 0 -- -- 59
2020-03-13 11:00:00 16.7 8 Oeste 15 Oeste 0 -- -- 67
2020-03-13 10:00:00 15 4 Oeste 6 Sudoeste 0 -- -- 73
2020-03-13 09:00:00 11.3 3 Sur 4 Sur 0 -- -- 90
2020-03-13 08:00:00 8.3 2 Norte 4 Nordeste 0 -- -- 95
2020-03-13 07:00:00 8.5 2 Nordeste 5 Nordeste 0 -- -- 94
2020-03-13 06:00:00 9.1 3 Nordeste 4 Este 0 -- -- 93
2020-03-13 05:00:00 9 0 Calma 4 Este 0 -- -- 91
2020-03-13 04:00:00 9.6 2 Este 3 Nordeste 0 -- -- 87
2020-03-13 03:00:00 10.6 0 Calma 4 Noroeste 0 -- -- 81
2020-03-13 02:00:00 12.3 4 Noroeste 14 Oeste 0 -- -- 75
2020-03-13 01:00:00 12.2 5 Noroeste 8 Oeste 0 -- -- 71
2020-03-13 00:00:00 14 2 Noroeste 5 Oeste 0 -- -- 62
2020-03-12 23:00:00 15.7 4 Oeste 11 Oeste 0 -- -- 54
2020-03-12 22:00:00 16.8 8 Oeste 12 Oeste 0 -- -- 50
2020-03-12 21:00:00 15.1 0 Calma 4 Oeste 0 -- -- 58
2020-03-12 20:00:00 17.5 0 Calma 11 Oeste 0 -- -- 52
2020-03-12 19:00:00 21.2 0 Calma 14 Sudoeste 0 -- -- 44
2020-03-12 18:00:00 24.6 7 Sudoeste 18 Sudoeste 0 -- -- 35
2020-03-12 17:00:00 25.2 10 Sudoeste 23 Sudoeste 0 -- -- 30
2020-03-12 16:00:00 25.5 14 Sudoeste 25 Oeste 0 -- -- 33
2020-03-12 15:00:00 26.1 11 Sudoeste 21 Oeste 0 -- -- 31
2020-03-12 14:00:00 25 9 Sudoeste 19 Sudoeste 0 -- -- 36
2020-03-12 13:00:00 23 4 Oeste 11 Sudoeste 0 -- -- 43
2020-03-12 12:00:00 20.8 7 Oeste 12 Oeste 0 -- -- 47
2020-03-12 11:00:00 17.7 2 Oeste 13 Oeste 0 -- -- 64
2020-03-12 10:00:00 16.7 4 Nordeste 14 Nordeste 0 -- -- 61
2020-03-12 09:00:00 13.8 10 Nordeste 22 Nordeste 0 -- -- 67
2020-03-12 08:00:00 13.1 15 Nordeste 22 Nordeste 0 -- -- 67
2020-03-12 07:00:00 14.1 15 Nordeste 21 Nordeste 0 -- -- 64
2020-03-12 06:00:00 13.8 15 Norte 22 Norte 0 -- -- 69
2020-03-12 05:00:00 14.8 10 Nordeste 18 Nordeste 0 -- -- 66
2020-03-12 04:00:00 13.3 2 Nordeste 13 Norte 0 -- -- 71
2020-03-12 03:00:00 14.7 4 Nordeste 12 Nordeste 0 -- -- 66
2020-03-12 02:00:00 16.7 10 Nordeste 13 Norte 0 -- -- 59
2020-03-12 01:00:00 14.9 5 Nordeste 8 Nordeste 0 -- -- 66
2020-03-12 00:00:00 14.1 6 Este 7 Nordeste 0 -- -- 71
2020-03-11 23:00:00 16.7 4 Oeste 13 Sudoeste 0 -- -- 61
2020-03-11 22:00:00 18.1 9 Nordeste 12 Nordeste 0 -- -- 57
2020-03-11 21:00:00 18.1 0 Calma 10 Noroeste 0 -- -- 59
2020-03-11 20:00:00 20.4 7 Noroeste 10 Noroeste 0 -- -- 51
2020-03-11 19:00:00 22.2 7 Nordeste 10 Norte 0 -- -- 47
2020-03-11 18:00:00 25.3 6 Norte 10 Norte 0 -- -- 37
2020-03-11 17:00:00 27 0 Calma 8 Sudeste 0 -- -- 30
2020-03-11 16:00:00 27.4 4 Sudoeste 17 Nordeste 0 -- -- 29
2020-03-11 15:00:00 26.5 5 Sudeste 12 Nordeste 0 -- -- 37
2020-03-11 14:00:00 25.3 4 Sur 13 Sudeste 0 -- -- 35
2020-03-11 13:00:00 23.2 4 Este 12 Nordeste 0 -- -- 40
2020-03-11 12:00:00 20.3 4 Nordeste 10 Nordeste 0 -- -- 54
2020-03-11 11:00:00 17.6 8 Nordeste 15 Nordeste 0 -- -- 60
2020-03-11 10:00:00 14.9 10 Nordeste 17 Nordeste 0 -- -- 67
2020-03-11 09:00:00 12.9 11 Nordeste 17 Nordeste 0 -- -- 72
2020-03-11 08:00:00 9.6 5 Nordeste 9 Nordeste 0 -- -- 81
2020-03-11 07:00:00 9.4 6 Nordeste 8 Nordeste 0 -- -- 82
2020-03-11 06:00:00 10.4 6 Nordeste 10 Nordeste 0 -- -- 78
2020-03-11 05:00:00 10.7 7 Nordeste 10 Nordeste 0 -- -- 76
2020-03-11 04:00:00 11.7 7 Nordeste 10 Nordeste 0 -- -- 71
2020-03-11 03:00:00 10.3 3 Nordeste 7 Nordeste 0 -- -- 79
2020-03-11 02:00:00 11.5 0 Calma 9 Nordeste 0 -- -- 74
2020-03-11 01:00:00 12.4 2 Nordeste 9 Nordeste 0 -- -- 71
2020-03-11 00:00:00 11.7 0 Calma 5 Oeste 0 -- -- 74
2020-03-10 23:00:00 11.7 0 Calma 4 Sudeste 0 -- -- 78
2020-03-10 22:00:00 12.9 0 Calma 5 Nordeste 0 -- -- 73
2020-03-10 21:00:00 14.4 4 Nordeste 5 Nordeste 0 -- -- 69
2020-03-10 20:00:00 17.1 3 Nordeste 4 Sudoeste 0 -- -- 63
2020-03-10 19:00:00 20.8 3 Sudoeste 10 Noroeste 0 -- -- 53
2020-03-10 18:00:00 22.1 6 Oeste 13 Noroeste 0 -- -- 42
2020-03-10 17:00:00 21.8 9 Noroeste 15 Oeste 0 -- -- 39
2020-03-10 16:00:00 22 7 Oeste 14 Oeste 0 -- -- 39
2020-03-10 15:00:00 21 8 Oeste 15 Noroeste 0 -- -- 38
2020-03-10 14:00:00 20.5 5 Oeste 12 Oeste 0 -- -- 38
2020-03-10 13:00:00 18.9 4 Este 15 Este 0 -- -- 38
2020-03-10 12:00:00 16.8 9 Sudeste 17 Sudeste 0 -- -- 42
2020-03-10 11:00:00 15.6 7 Este 13 Este 0 -- -- 44
2020-03-10 10:00:00 13.5 4 Sudeste 9 Nordeste 0 -- -- 54
2020-03-10 09:00:00 10.2 6 Nordeste 10 Nordeste 0 -- -- 63
2020-03-10 08:00:00 5.7 5 Nordeste 9 Nordeste 0 -- -- 81
2020-03-10 07:00:00 5.6 3 Nordeste 6 Sur 0 -- -- 82
2020-03-10 06:00:00 7.8 3 Sur 16 Nordeste 0 -- -- 71
2020-03-10 05:00:00 8.5 10 Nordeste 14 Norte 0 -- -- 66
2020-03-10 04:00:00 7 7 Nordeste 9 Nordeste 0 -- -- 75
2020-03-10 03:00:00 6.5 3 Norte 8 Este 0 -- -- 83
2020-03-10 02:00:00 7.5 6 Este 9 Este 0 -- -- 79
2020-03-10 01:00:00 7.9 5 Nordeste 10 Nordeste 0 -- -- 78
2020-03-10 00:00:00 9.1 5 Nordeste 9 Nordeste 0 -- -- 78